sensor_id;sensor_type;location;lat;lon;timestamp;pressure;altitude;pressure_sealevel;temperature;humidity
10064;BME280;5071;52.360;13.134;2022-09-01T00:04:23;101888.00;;;16.60;63.34
10064;BME280;5071;52.360;13.134;2022-09-01T00:09:26;101891.66;;;16.56;63.46
10064;BME280;5071;52.360;13.134;2022-09-01T00:14:30;101878.44;;;16.45;63.47
10064;BME280;5071;52.360;13.134;2022-09-01T00:19:35;101892.66;;;16.48;63.61
10064;BME280;5071;52.360;13.134;2022-09-01T00:24:37;101891.81;;;16.46;63.47
10064;BME280;5071;52.360;13.134;2022-09-01T00:29:39;101885.53;;;16.47;63.02
10064;BME280;5071;52.360;13.134;2022-09-01T00:34:46;101883.75;;;16.48;62.88
10064;BME280;5071;52.360;13.134;2022-09-01T00:39:48;101892.56;;;16.53;62.56
10064;BME280;5071;52.360;13.134;2022-09-01T00:44:50;101879.28;;;16.47;61.57
10064;BME280;5071;52.360;13.134;2022-09-01T00:49:54;101879.25;;;16.50;60.75
10064;BME280;5071;52.360;13.134;2022-09-01T00:54:58;101888.22;;;16.46;60.39
10064;BME280;5071;52.360;13.134;2022-09-01T01:00:06;101880.16;;;16.49;59.73
10064;BME280;5071;52.360;13.134;2022-09-01T01:05:11;101871.28;;;16.45;59.23
10064;BME280;5071;52.360;13.134;2022-09-01T01:10:20;101866.03;;;16.39;59.61
10064;BME280;5071;52.360;13.134;2022-09-01T01:15:22;101873.19;;;16.39;58.96
10064;BME280;5071;52.360;13.134;2022-09-01T01:20:27;101875.81;;;16.40;58.52
10064;BME280;5071;52.360;13.134;2022-09-01T01:25:34;101875.00;;;16.37;58.33
10064;BME280;5071;52.360;13.134;2022-09-01T01:30:40;101877.09;;;16.19;59.07
10064;BME280;5071;52.360;13.134;2022-09-01T01:35:42;101875.25;;;16.24;58.49
10064;BME280;5071;52.360;13.134;2022-09-01T01:40:46;101877.97;;;16.20;58.78
10064;BME280;5071;52.360;13.134;2022-09-01T01:45:51;101872.72;;;16.15;58.41
10064;BME280;5071;52.360;13.134;2022-09-01T01:50:54;101877.41;;;16.01;58.70
10064;BME280;5071;52.360;13.134;2022-09-01T01:55:59;101875.56;;;16.04;58.30
10064;BME280;5071;52.360;13.134;2022-09-01T02:01:02;101877.38;;;16.04;58.30
10064;BME280;5071;52.360;13.134;2022-09-01T02:06:06;101876.66;;;15.92;58.92
10064;BME280;5071;52.360;13.134;2022-09-01T02:11:10;101877.50;;;15.98;58.63
10064;BME280;5071;52.360;13.134;2022-09-01T02:16:12;101874.03;;;15.89;59.01
10064;BME280;5071;52.360;13.134;2022-09-01T02:21:17;101866.19;;;15.79;59.44
10064;BME280;5071;52.360;13.134;2022-09-01T02:26:21;101875.22;;;15.70;60.21
10064;BME280;5071;52.360;13.134;2022-09-01T02:31:23;101876.06;;;15.72;60.58
10064;BME280;5071;52.360;13.134;2022-09-01T02:36:26;101876.25;;;15.60;61.45
10064;BME280;5071;52.360;13.134;2022-09-01T02:41:29;101867.56;;;15.44;62.74
10064;BME280;5071;52.360;13.134;2022-09-01T02:46:31;101869.44;;;15.37;62.83
10064;BME280;5071;52.360;13.134;2022-09-01T02:51:33;101853.56;;;15.26;64.05
10064;BME280;5071;52.360;13.134;2022-09-01T02:56:36;101867.69;;;15.36;64.02
10064;BME280;5071;52.360;13.134;2022-09-01T03:01:38;101865.84;;;15.41;63.95
10064;BME280;5071;52.360;13.134;2022-09-01T03:06:41;101859.66;;;15.36;64.28
10064;BME280;5071;52.360;13.134;2022-09-01T03:11:47;101863.22;;;15.36;65.00
10064;BME280;5071;52.360;13.134;2022-09-01T03:16:49;101862.47;;;15.27;66.41
10064;BME280;5071;52.360;13.134;2022-09-01T03:21:51;101864.19;;;15.31;65.82
10064;BME280;5071;52.360;13.134;2022-09-01T03:26:57;101856.22;;;15.28;66.62
10064;BME280;5071;52.360;13.134;2022-09-01T03:31:59;101848.56;;;15.00;67.14
10064;BME280;5071;52.360;13.134;2022-09-01T03:37:01;101856.63;;;14.97;68.54
10064;BME280;5071;52.360;13.134;2022-09-01T03:42:05;101860.34;;;14.85;69.17
10064;BME280;5071;52.360;13.134;2022-09-01T03:47:07;101860.63;;;14.56;70.92
10064;BME280;5071;52.360;13.134;2022-09-01T03:52:09;101867.06;;;14.36;72.08
10064;BME280;5071;52.360;13.134;2022-09-01T03:57:13;101858.38;;;14.16;73.43
10064;BME280;5071;52.360;13.134;2022-09-01T04:02:16;101857.50;;;14.12;74.15
10064;BME280;5071;52.360;13.134;2022-09-01T04:07:18;101855.03;;;13.89;74.78
10064;BME280;5071;52.360;13.134;2022-09-01T04:12:21;101855.25;;;13.65;76.41
10064;BME280;5071;52.360;13.134;2022-09-01T04:17:23;101851.66;;;13.69;76.72
10064;BME280;5071;52.360;13.134;2022-09-01T04:22:31;101851.72;;;13.59;77.05
10064;BME280;5071;52.360;13.134;2022-09-01T04:27:34;101857.16;;;13.44;77.63
10064;BME280;5071;52.360;13.134;2022-09-01T04:32:36;101857.22;;;13.22;78.66
10064;BME280;5071;52.360;13.134;2022-09-01T04:37:37;101859.94;;;13.15;79.39
10064;BME280;5071;52.360;13.134;2022-09-01T04:42:40;101854.59;;;13.15;79.66
10064;BME280;5071;52.360;13.134;2022-09-01T04:47:42;101855.47;;;13.18;79.69
10064;BME280;5071;52.360;13.134;2022-09-01T04:52:44;101862.59;;;13.16;80.03
10064;BME280;5071;52.360;13.134;2022-09-01T04:57:48;101864.28;;;13.39;79.37
10064;BME280;5071;52.360;13.134;2022-09-01T05:02:52;101860.69;;;13.46;79.25
10064;BME280;5071;52.360;13.134;2022-09-01T05:07:54;101862.50;;;13.44;79.21
10064;BME280;5071;52.360;13.134;2022-09-01T05:13:00;101865.97;;;13.52;79.52
10064;BME280;5071;52.360;13.134;2022-09-01T05:18:02;101865.94;;;13.58;79.28
10064;BME280;5071;52.360;13.134;2022-09-01T05:23:04;101865.97;;;13.55;79.35
10064;BME280;5071;52.360;13.134;2022-09-01T05:28:07;101860.88;;;15.72;70.99
10064;BME280;5071;52.360;13.134;2022-09-01T05:33:09;101865.34;;;17.20;65.60
10064;BME280;5071;52.360;13.134;2022-09-01T05:38:11;101867.34;;;17.88;62.24
10064;BME280;5071;52.360;13.134;2022-09-01T05:43:14;101873.97;;;18.09;60.81
10064;BME280;5071;52.360;13.134;2022-09-01T05:48:16;101869.84;;;18.64;59.76
10064;BME280;5071;52.360;13.134;2022-09-01T05:53:18;101874.53;;;19.20;57.25
10064;BME280;5071;52.360;13.134;2022-09-01T05:58:25;101870.81;;;19.83;54.74
10064;BME280;5071;52.360;13.134;2022-09-01T06:03:48;101872.91;;;20.26;53.68
10064;BME280;5071;52.360;13.134;2022-09-01T06:08:50;101872.28;;;19.63;55.30
10064;BME280;5071;52.360;13.134;2022-09-01T06:13:54;101869.66;;;19.33;56.88
10064;BME280;5071;52.360;13.134;2022-09-01T06:18:56;101878.81;;;17.57;62.21
10064;BME280;5071;52.360;13.134;2022-09-01T06:23:58;101883.09;;;16.82;64.85
10064;BME280;5071;52.360;13.134;2022-09-01T06:29:04;101886.00;;;16.21;67.41
10064;BME280;5071;52.360;13.134;2022-09-01T06:34:09;101893.28;;;16.13;67.53
10064;BME280;5071;52.360;13.134;2022-09-01T06:39:11;101883.56;;;16.07;67.95
10064;BME280;5071;52.360;13.134;2022-09-01T06:44:14;101883.44;;;16.15;67.61
10064;BME280;5071;52.360;13.134;2022-09-01T06:49:16;101894.81;;;16.29;66.77
10064;BME280;5071;52.360;13.134;2022-09-01T06:54:18;101893.84;;;16.32;67.07
10064;BME280;5071;52.360;13.134;2022-09-01T06:59:27;101902.59;;;16.42;66.04
10064;BME280;5071;52.360;13.134;2022-09-01T07:04:35;101897.84;;;16.59;65.99
10064;BME280;5071;52.360;13.134;2022-09-01T07:09:37;101898.13;;;16.90;62.99
10064;BME280;5071;52.360;13.134;2022-09-01T07:15:00;101894.53;;;16.93;63.63
10064;BME280;5071;52.360;13.134;2022-09-01T07:20:24;101901.31;;;17.09;61.93
10064;BME280;5071;52.360;13.134;2022-09-01T07:25:27;101901.16;;;17.17;61.88
10064;BME280;5071;52.360;13.134;2022-09-01T07:30:51;101893.72;;;17.30;60.56
10064;BME280;5071;52.360;13.134;2022-09-01T07:35:53;101899.84;;;17.38;60.78
10064;BME280;5071;52.360;13.134;2022-09-01T07:41:15;101905.84;;;17.49;59.25
10064;BME280;5071;52.360;13.134;2022-09-01T07:46:38;101903.66;;;17.65;59.34
10064;BME280;5071;52.360;13.134;2022-09-01T07:51:40;101904.91;;;17.91;58.43
10064;BME280;5071;52.360;13.134;2022-09-01T07:56:42;101898.53;;;17.95;58.00
10064;BME280;5071;52.360;13.134;2022-09-01T08:01:45;101905.34;;;18.09;56.68
10064;BME280;5071;52.360;13.134;2022-09-01T08:06:48;101914.22;;;18.12;55.33
10064;BME280;5071;52.360;13.134;2022-09-01T08:11:50;101905.97;;;18.20;54.20
10064;BME280;5071;52.360;13.134;2022-09-01T08:17:05;101907.56;;;18.27;54.88
10064;BME280;5071;52.360;13.134;2022-09-01T08:22:26;101916.72;;;18.54;52.77
10064;BME280;5071;52.360;13.134;2022-09-01T08:27:28;101907.94;;;18.48;52.84
10064;BME280;5071;52.360;13.134;2022-09-01T08:32:31;101898.94;;;18.83;52.28
10064;BME280;5071;52.360;13.134;2022-09-01T08:37:34;101899.41;;;18.97;51.05
10064;BME280;5071;52.360;13.134;2022-09-01T08:42:46;101901.25;;;18.95;49.77
10064;BME280;5071;52.360;13.134;2022-09-01T08:47:56;101901.72;;;19.11;48.60
10064;BME280;5071;52.360;13.134;2022-09-01T08:53:24;101899.78;;;19.16;45.74
10064;BME280;5071;52.360;13.134;2022-09-01T08:58:29;101900.09;;;19.35;47.57
10064;BME280;5071;52.360;13.134;2022-09-01T09:03:42;101899.31;;;19.32;48.20
10064;BME280;5071;52.360;13.134;2022-09-01T09:08:56;101900.44;;;19.83;46.26
10064;BME280;5071;52.360;13.134;2022-09-01T09:14:03;101896.03;;;20.33;45.17
10064;BME280;5071;52.360;13.134;2022-09-01T09:19:15;101895.22;;;23.97;38.62
10064;BME280;5071;52.360;13.134;2022-09-01T09:24:25;101903.56;;;26.10;34.07
10064;BME280;5071;52.360;13.134;2022-09-01T09:29:35;101904.47;;;27.29;32.62
10064;BME280;5071;52.360;13.134;2022-09-01T09:34:40;101897.47;;;26.96;33.10
10064;BME280;5071;52.360;13.134;2022-09-01T09:39:43;101899.00;;;27.58;31.78
10064;BME280;5071;52.360;13.134;2022-09-01T09:44:47;101888.41;;;27.80;30.25
10064;BME280;5071;52.360;13.134;2022-09-01T09:50:20;101900.06;;;26.69;31.04
10064;BME280;5071;52.360;13.134;2022-09-01T09:55:25;101893.22;;;28.69;28.60
10064;BME280;5071;52.360;13.134;2022-09-01T10:00:30;101885.59;;;29.00;27.11
10064;BME280;5071;52.360;13.134;2022-09-01T10:05:38;101883.03;;;28.06;29.39
10064;BME280;5071;52.360;13.134;2022-09-01T10:10:42;101896.97;;;28.68;28.49
10064;BME280;5071;52.360;13.134;2022-09-01T10:16:01;101888.00;;;29.18;28.10
10064;BME280;5071;52.360;13.134;2022-09-01T10:21:12;101883.59;;;31.18;25.42
10064;BME280;5071;52.360;13.134;2022-09-01T10:26:19;101877.13;;;30.50;26.07
10064;BME280;5071;52.360;13.134;2022-09-01T10:31:23;101885.38;;;28.65;27.70
10064;BME280;5071;52.360;13.134;2022-09-01T10:36:34;101871.38;;;28.69;29.05
10064;BME280;5071;52.360;13.134;2022-09-01T10:41:50;101876.63;;;28.73;29.28
10064;BME280;5071;52.360;13.134;2022-09-01T10:47:07;101861.25;;;27.37;30.54
10064;BME280;5071;52.360;13.134;2022-09-01T10:58:05;101853.97;;;25.27;34.39
10064;BME280;5071;52.360;13.134;2022-09-01T11:03:35;101851.38;;;23.51;37.65
10064;BME280;5071;52.360;13.134;2022-09-01T11:08:57;101865.75;;;22.12;40.73
10064;BME280;5071;52.360;13.134;2022-09-01T11:14:15;101851.28;;;21.71;40.32
10064;BME280;5071;52.360;13.134;2022-09-01T11:19:35;101857.00;;;21.40;41.23
10064;BME280;5071;52.360;13.134;2022-09-01T11:25:07;101848.38;;;22.80;39.67
10064;BME280;5071;52.360;13.134;2022-09-01T11:30:17;101840.25;;;23.38;40.07
10064;BME280;5071;52.360;13.134;2022-09-01T11:35:24;101853.63;;;23.97;35.08
10064;BME280;5071;52.360;13.134;2022-09-01T11:40:30;101852.44;;;24.72;33.72
10064;BME280;5071;52.360;13.134;2022-09-01T11:45:40;101853.09;;;25.58;35.63
10064;BME280;5071;52.360;13.134;2022-09-01T11:50:55;101848.34;;;23.57;36.50
10064;BME280;5071;52.360;13.134;2022-09-01T11:56:12;101851.72;;;24.34;35.88
10064;BME280;5071;52.360;13.134;2022-09-01T12:01:18;101837.91;;;24.21;35.73
10064;BME280;5071;52.360;13.134;2022-09-01T12:06:22;101842.00;;;24.12;35.64
10064;BME280;5071;52.360;13.134;2022-09-01T12:11:28;101839.19;;;23.79;36.71
10064;BME280;5071;52.360;13.134;2022-09-01T12:16:33;101828.78;;;22.94;37.38
10064;BME280;5071;52.360;13.134;2022-09-01T12:21:38;101845.63;;;22.81;38.22
10064;BME280;5071;52.360;13.134;2022-09-01T12:26:41;101835.69;;;24.47;36.67
10064;BME280;5071;52.360;13.134;2022-09-01T12:31:46;101834.19;;;23.33;37.34
10064;BME280;5071;52.360;13.134;2022-09-01T12:37:01;101841.88;;;22.84;38.50
10064;BME280;5071;52.360;13.134;2022-09-01T12:42:10;101826.75;;;24.44;37.44
10064;BME280;5071;52.360;13.134;2022-09-01T12:47:44;101824.75;;;23.59;35.77
10064;BME280;5071;52.360;13.134;2022-09-01T12:52:48;101820.75;;;23.49;37.23
10064;BME280;5071;52.360;13.134;2022-09-01T12:57:55;101818.94;;;23.86;36.88
10064;BME280;5071;52.360;13.134;2022-09-01T13:03:07;101822.78;;;24.17;35.92
10064;BME280;5071;52.360;13.134;2022-09-01T13:08:15;101821.16;;;23.22;36.33
10064;BME280;5071;52.360;13.134;2022-09-01T13:13:20;101805.06;;;24.10;36.06
10064;BME280;5071;52.360;13.134;2022-09-01T13:18:24;101803.06;;;23.59;35.93
10064;BME280;5071;52.360;13.134;2022-09-01T13:23:26;101809.41;;;22.44;38.05
10064;BME280;5071;52.360;13.134;2022-09-01T13:28:28;101805.38;;;22.34;39.22
10064;BME280;5071;52.360;13.134;2022-09-01T13:33:34;101799.53;;;22.83;38.63
10064;BME280;5071;52.360;13.134;2022-09-01T13:38:57;101798.69;;;23.20;38.61
10064;BME280;5071;52.360;13.134;2022-09-01T13:43:59;101797.94;;;23.36;37.43
10064;BME280;5071;52.360;13.134;2022-09-01T13:49:02;101796.31;;;23.32;37.66
10064;BME280;5071;52.360;13.134;2022-09-01T13:54:24;101808.47;;;22.45;38.67
10064;BME280;5071;52.360;13.134;2022-09-01T13:59:26;101787.84;;;23.01;37.90
10064;BME280;5071;52.360;13.134;2022-09-01T14:04:29;101772.88;;;22.93;38.06
10064;BME280;5071;52.360;13.134;2022-09-01T14:09:31;101776.03;;;23.21;37.83
10064;BME280;5071;52.360;13.134;2022-09-01T14:14:34;101781.94;;;23.48;37.73
10064;BME280;5071;52.360;13.134;2022-09-01T14:19:57;101775.78;;;23.45;37.84
10064;BME280;5071;52.360;13.134;2022-09-01T14:24:59;101772.19;;;23.08;38.46
10064;BME280;5071;52.360;13.134;2022-09-01T14:30:06;101764.91;;;23.64;36.61
10064;BME280;5071;52.360;13.134;2022-09-01T14:35:16;101752.41;;;23.79;36.71
10064;BME280;5071;52.360;13.134;2022-09-01T14:40:37;101754.19;;;23.97;35.93
10064;BME280;5071;52.360;13.134;2022-09-01T14:46:01;101760.63;;;24.45;35.90
10064;BME280;5071;52.360;13.134;2022-09-01T14:51:21;101750.91;;;23.37;37.75
10064;BME280;5071;52.360;13.134;2022-09-01T14:56:50;101746.19;;;23.40;38.38
10064;BME280;5071;52.360;13.134;2022-09-01T15:02:13;101743.06;;;24.53;38.06
10064;BME280;5071;52.360;13.134;2022-09-01T15:07:27;101733.56;;;24.61;36.16
10064;BME280;5071;52.360;13.134;2022-09-01T15:12:34;101736.88;;;23.82;37.38
10064;BME280;5071;52.360;13.134;2022-09-01T15:17:36;101734.63;;;23.19;37.91
10064;BME280;5071;52.360;13.134;2022-09-01T15:22:49;101737.06;;;23.60;37.07
10064;BME280;5071;52.360;13.134;2022-09-01T15:28:05;101729.84;;;23.24;37.93
10064;BME280;5071;52.360;13.134;2022-09-01T15:33:11;101736.00;;;22.71;38.42
10064;BME280;5071;52.360;13.134;2022-09-01T15:38:21;101728.84;;;23.08;37.82
10064;BME280;5071;52.360;13.134;2022-09-01T15:43:31;101724.88;;;23.15;37.84
10064;BME280;5071;52.360;13.134;2022-09-01T15:48:33;101725.75;;;22.97;38.46
10064;BME280;5071;52.360;13.134;2022-09-01T15:53:43;101717.28;;;23.04;38.65
10064;BME280;5071;52.360;13.134;2022-09-01T15:58:57;101727.00;;;22.51;39.12
10064;BME280;5071;52.360;13.134;2022-09-01T16:04:09;101731.09;;;22.21;39.44
10064;BME280;5071;52.360;13.134;2022-09-01T16:09:23;101721.50;;;22.34;39.49
10064;BME280;5071;52.360;13.134;2022-09-01T16:14:34;101725.03;;;22.55;39.46
10064;BME280;5071;52.360;13.134;2022-09-01T16:19:50;101720.44;;;22.57;39.04
10064;BME280;5071;52.360;13.134;2022-09-01T16:25:01;101723.13;;;22.38;39.09
10064;BME280;5071;52.360;13.134;2022-09-01T16:30:13;101713.22;;;22.17;39.81
10064;BME280;5071;52.360;13.134;2022-09-01T16:35:26;101730.09;;;21.82;40.23
10064;BME280;5071;52.360;13.134;2022-09-01T16:40:37;101724.34;;;21.90;39.89
10064;BME280;5071;52.360;13.134;2022-09-01T16:45:58;101719.00;;;21.88;40.21
10064;BME280;5071;52.360;13.134;2022-09-01T16:51:18;101706.91;;;21.56;40.45
10064;BME280;5071;52.360;13.134;2022-09-01T16:56:34;101711.09;;;21.41;42.36
10064;BME280;5071;52.360;13.134;2022-09-01T17:01:47;101703.38;;;21.32;43.03
10064;BME280;5071;52.360;13.134;2022-09-01T17:07:07;101710.06;;;21.23;43.91
10064;BME280;5071;52.360;13.134;2022-09-01T17:12:37;101710.38;;;20.93;44.71
10064;BME280;5071;52.360;13.134;2022-09-01T17:17:51;101710.28;;;20.73;45.20
10064;BME280;5071;52.360;13.134;2022-09-01T17:23:09;101711.56;;;20.39;45.36
10064;BME280;5071;52.360;13.134;2022-09-01T17:28:31;101726.53;;;20.23;46.22
10064;BME280;5071;52.360;13.134;2022-09-01T17:33:57;101732.84;;;19.98;47.28
10064;BME280;5071;52.360;13.134;2022-09-01T17:39:19;101732.59;;;19.52;48.71
10064;BME280;5071;52.360;13.134;2022-09-01T17:44:40;101741.03;;;19.15;49.54
10064;BME280;5071;52.360;13.134;2022-09-01T17:50:00;101732.78;;;18.91;50.14
10064;BME280;5071;52.360;13.134;2022-09-01T17:55:22;101746.69;;;18.76;51.10
10064;BME280;5071;52.360;13.134;2022-09-01T18:00:41;101746.38;;;18.55;50.72
10064;BME280;5071;52.360;13.134;2022-09-01T18:05:58;101750.84;;;18.25;51.33
10064;BME280;5071;52.360;13.134;2022-09-01T18:11:06;101750.75;;;17.97;53.42
10064;BME280;5071;52.360;13.134;2022-09-01T18:16:17;101763.59;;;17.82;52.60
10064;BME280;5071;52.360;13.134;2022-09-01T18:21:25;101766.09;;;17.56;54.14
10064;BME280;5071;52.360;13.134;2022-09-01T18:26:38;101768.44;;;17.32;55.15
10064;BME280;5071;52.360;13.134;2022-09-01T18:31:54;101767.88;;;17.19;56.11
10064;BME280;5071;52.360;13.134;2022-09-01T18:37:06;101774.56;;;17.00;57.92
10064;BME280;5071;52.360;13.134;2022-09-01T18:42:20;101784.97;;;16.71;59.09
10064;BME280;5071;52.360;13.134;2022-09-01T18:47:53;101783.78;;;16.43;60.54
10064;BME280;5071;52.360;13.134;2022-09-01T18:53:20;101784.28;;;16.18;60.72
10064;BME280;5071;52.360;13.134;2022-09-01T18:58:43;101789.13;;;15.96;61.32
10064;BME280;5071;52.360;13.134;2022-09-01T19:03:59;101786.72;;;15.82;61.47
10064;BME280;5071;52.360;13.134;2022-09-01T19:09:08;101789.56;;;15.70;61.83
10064;BME280;5071;52.360;13.134;2022-09-01T19:14:21;101790.59;;;15.61;60.43
10064;BME280;5071;52.360;13.134;2022-09-01T19:19:38;101785.47;;;16.00;58.70
10064;BME280;5071;52.360;13.134;2022-09-01T19:24:44;101790.16;;;15.87;60.10
10064;BME280;5071;52.360;13.134;2022-09-01T19:29:50;101792.41;;;15.58;62.46
10064;BME280;5071;52.360;13.134;2022-09-01T19:34:57;101781.53;;;15.12;63.69
10064;BME280;5071;52.360;13.134;2022-09-01T19:39:59;101802.25;;;14.96;66.17
10064;BME280;5071;52.360;13.134;2022-09-01T19:45:06;101799.00;;;14.71;66.80
10064;BME280;5071;52.360;13.134;2022-09-01T19:50:15;101809.97;;;14.47;67.28
10064;BME280;5071;52.360;13.134;2022-09-01T19:55:23;101807.47;;;14.28;68.21
10064;BME280;5071;52.360;13.134;2022-09-01T20:00:39;101801.34;;;14.18;68.69
10064;BME280;5071;52.360;13.134;2022-09-01T20:05:46;101804.19;;;14.03;68.69
10064;BME280;5071;52.360;13.134;2022-09-01T20:10:56;101819.25;;;14.09;67.92
10064;BME280;5071;52.360;13.134;2022-09-01T20:16:04;101805.75;;;14.26;66.97
10064;BME280;5071;52.360;13.134;2022-09-01T20:21:11;101805.81;;;14.21;68.65
10064;BME280;5071;52.360;13.134;2022-09-01T20:26:23;101803.22;;;14.12;69.09
10064;BME280;5071;52.360;13.134;2022-09-01T20:31:29;101806.94;;;13.94;70.00
10064;BME280;5071;52.360;13.134;2022-09-01T20:36:36;101813.38;;;13.73;71.25
10064;BME280;5071;52.360;13.134;2022-09-01T20:41:42;101807.28;;;13.55;71.66
10064;BME280;5071;52.360;13.134;2022-09-01T20:46:46;101812.69;;;13.46;72.58
10064;BME280;5071;52.360;13.134;2022-09-01T20:51:54;101810.97;;;13.30;73.19
10064;BME280;5071;52.360;13.134;2022-09-01T20:57:06;101814.63;;;13.16;74.15
10064;BME280;5071;52.360;13.134;2022-09-01T21:02:22;101811.97;;;13.12;74.10
10064;BME280;5071;52.360;13.134;2022-09-01T21:07:34;101818.16;;;13.18;74.04
10064;BME280;5071;52.360;13.134;2022-09-01T21:12:38;101819.06;;;13.16;74.15
10064;BME280;5071;52.360;13.134;2022-09-01T21:17:48;101816.41;;;13.11;74.27
10064;BME280;5071;52.360;13.134;2022-09-01T21:22:54;101822.69;;;12.99;74.61
10064;BME280;5071;52.360;13.134;2022-09-01T21:27:58;101826.31;;;12.88;75.43
10064;BME280;5071;52.360;13.134;2022-09-01T21:33:01;101820.16;;;12.75;75.37
10064;BME280;5071;52.360;13.134;2022-09-01T21:38:04;101825.50;;;12.61;75.76
10064;BME280;5071;52.360;13.134;2022-09-01T21:43:11;101828.22;;;12.45;76.50
10064;BME280;5071;52.360;13.134;2022-09-01T21:48:15;101823.81;;;12.31;77.14
10064;BME280;5071;52.360;13.134;2022-09-01T21:53:20;101824.75;;;12.22;76.96
10064;BME280;5071;52.360;13.134;2022-09-01T21:58:23;101825.66;;;12.15;77.54
10064;BME280;5071;52.360;13.134;2022-09-01T22:03:27;101821.22;;;12.01;78.15
10064;BME280;5071;52.360;13.134;2022-09-01T22:08:32;101819.44;;;11.97;78.36
10064;BME280;5071;52.360;13.134;2022-09-01T22:13:36;101815.91;;;12.00;78.76
10064;BME280;5071;52.360;13.134;2022-09-01T22:18:41;101813.25;;;11.94;78.75
10064;BME280;5071;52.360;13.134;2022-09-01T22:23:46;101807.88;;;11.86;79.07
10064;BME280;5071;52.360;13.134;2022-09-01T22:28:49;101803.47;;;11.90;79.36
10064;BME280;5071;52.360;13.134;2022-09-01T22:33:52;101807.94;;;11.94;79.41
10064;BME280;5071;52.360;13.134;2022-09-01T22:38:58;101811.47;;;11.93;78.85
10064;BME280;5071;52.360;13.134;2022-09-01T22:44:01;101807.88;;;11.87;78.26
10064;BME280;5071;52.360;13.134;2022-09-01T22:49:04;101804.34;;;11.87;79.55
10064;BME280;5071;52.360;13.134;2022-09-01T22:54:08;101809.69;;;11.72;79.34
10064;BME280;5071;52.360;13.134;2022-09-01T22:59:13;101809.66;;;11.61;80.14
10064;BME280;5071;52.360;13.134;2022-09-01T23:04:16;101809.66;;;11.50;80.30
10064;BME280;5071;52.360;13.134;2022-09-01T23:09:20;101807.84;;;11.37;80.61
10064;BME280;5071;52.360;13.134;2022-09-01T23:14:22;101804.28;;;11.25;81.37
10064;BME280;5071;52.360;13.134;2022-09-01T23:19:24;101804.31;;;11.21;81.55
10064;BME280;5071;52.360;13.134;2022-09-01T23:24:28;101798.09;;;11.16;81.77
10064;BME280;5071;52.360;13.134;2022-09-01T23:29:30;101798.94;;;11.01;82.26
10064;BME280;5071;52.360;13.134;2022-09-01T23:34:32;101791.81;;;10.94;82.43
10064;BME280;5071;52.360;13.134;2022-09-01T23:39:35;101796.25;;;10.87;82.84
10064;BME280;5071;52.360;13.134;2022-09-01T23:44:38;101791.78;;;10.84;83.00
10064;BME280;5071;52.360;13.134;2022-09-01T23:49:41;101793.53;;;10.76;82.63
10064;BME280;5071;52.360;13.134;2022-09-01T23:54:44;101792.63;;;10.69;83.38
10064;BME280;5071;52.360;13.134;2022-09-01T23:59:46;101802.34;;;10.63;83.27
